createdAt,value
2018-10-16T00:01:39.824Z,24.23
2018-10-16T00:04:07.972Z,28.40
2018-10-16T00:06:36.165Z,26.68
2018-10-16T00:09:06.596Z,23.22
2018-10-16T00:11:35.060Z,27.65
2018-10-16T00:14:03.147Z,25.90
2018-10-16T00:16:31.304Z,24.70
2018-10-16T00:18:59.481Z,26.95
2018-10-16T00:21:27.594Z,24.35
2018-10-16T00:23:55.630Z,22.22
2018-10-16T00:26:23.732Z,24.70
2018-10-16T00:28:51.795Z,23.98
2018-10-16T00:31:19.832Z,24.33
2018-10-16T00:33:48.052Z,24.75
2018-10-16T00:36:16.205Z,21.33
2018-10-16T00:38:44.324Z,22.13
2018-10-16T00:41:12.677Z,23.32
2018-10-16T00:43:40.823Z,21.55
2018-10-16T00:46:08.944Z,22.32
2018-10-16T00:48:36.973Z,22.27
2018-10-16T00:51:05.485Z,20.75
2018-10-16T00:53:33.729Z,21.20
2018-10-16T00:56:01.828Z,21.33
2018-10-16T00:58:30.001Z,21.40
2018-10-16T01:00:58.280Z,20.88
2018-10-16T01:03:26.572Z,21.75
2018-10-16T01:05:54.603Z,24.70
2018-10-16T01:08:22.815Z,21.70
2018-10-16T01:10:50.874Z,22.15
2018-10-16T01:13:18.960Z,20.65
2018-10-16T01:15:47.165Z,21.00
2018-10-16T01:18:15.182Z,22.98
2018-10-16T01:20:43.587Z,24.77
2018-10-16T01:23:11.748Z,23.15
2018-10-16T01:25:39.853Z,25.35
2018-10-16T01:28:07.895Z,24.80
2018-10-16T01:30:36.050Z,22.80
2018-10-16T01:33:04.274Z,22.30
2018-10-16T01:35:32.505Z,22.45
2018-10-16T01:38:00.706Z,21.77
2018-10-16T01:40:28.797Z,20.08
2018-10-16T01:42:56.960Z,19.32
2018-10-16T01:45:25.039Z,21.40
2018-10-16T01:47:53.064Z,23.15
2018-10-16T01:50:21.438Z,18.00
2018-10-16T01:52:49.667Z,19.80
2018-10-16T01:55:17.830Z,21.35
2018-10-16T01:57:45.915Z,20.43
2018-10-16T02:00:13.982Z,23.75
2018-10-16T02:02:42.175Z,24.87
2018-10-16T02:05:10.341Z,28.57
2018-10-16T02:07:38.392Z,28.32
2018-10-16T02:10:07.103Z,25.92
2018-10-16T02:12:35.577Z,27.40
2018-10-16T02:15:03.990Z,33.88
2018-10-16T02:17:32.244Z,29.18
2018-10-16T02:20:01.162Z,26.37
2018-10-16T02:22:29.208Z,27.27
2018-10-16T02:24:57.282Z,26.17
2018-10-16T02:27:25.570Z,30.80
2018-10-16T02:29:53.811Z,28.23
2018-10-16T02:32:22.129Z,26.27
2018-10-16T02:34:50.309Z,28.90
2018-10-16T02:37:18.348Z,28.87
2018-10-16T02:39:46.551Z,26.07
2018-10-16T02:42:14.698Z,29.07
2018-10-16T02:44:42.784Z,32.90
2018-10-16T02:47:10.852Z,26.60
2018-10-16T02:49:39.029Z,29.48
2018-10-16T02:52:07.083Z,30.85
2018-10-16T02:54:35.173Z,28.23
2018-10-16T02:57:03.428Z,27.05
2018-10-16T02:59:31.544Z,27.07
2018-10-16T03:01:59.581Z,31.17
2018-10-16T03:04:27.675Z,25.45
2018-10-16T03:06:55.718Z,26.00
2018-10-16T03:09:23.817Z,26.37
2018-10-16T03:11:51.866Z,26.55
2018-10-16T03:14:20.057Z,26.73
2018-10-16T03:16:48.159Z,27.42
2018-10-16T03:19:16.304Z,29.20
2018-10-16T03:21:44.618Z,29.10
2018-10-16T03:27:50.528Z,26.60
2018-10-16T03:30:18.756Z,24.02
2018-10-16T03:32:47.043Z,26.20
2018-10-16T03:35:15.241Z,26.80
2018-10-16T03:37:43.318Z,25.77
2018-10-16T03:40:11.954Z,25.95
2018-10-16T03:42:41.030Z,29.65
2018-10-16T03:45:10.735Z,30.00
2018-10-16T03:47:39.720Z,31.95
2018-10-16T03:50:08.802Z,30.60
2018-10-16T03:52:37.148Z,33.05
2018-10-16T03:55:05.928Z,31.55
2018-10-16T03:57:34.137Z,47.30
2018-10-16T04:00:02.217Z,29.87
2018-10-16T04:02:30.473Z,27.27
2018-10-16T04:04:58.660Z,26.70
2018-10-16T04:07:26.909Z,26.77
2018-10-16T04:09:55.109Z,26.30
2018-10-16T04:12:23.184Z,22.35
2018-10-16T04:14:51.608Z,21.62
2018-10-16T04:17:19.720Z,37.40
2018-10-16T04:19:48.012Z,35.93
2018-10-16T04:22:16.101Z,32.90
2018-10-16T04:24:44.209Z,46.30
2018-10-16T04:27:12.483Z,43.02
2018-10-16T04:29:40.693Z,44.40
2018-10-16T04:32:08.760Z,30.75
2018-10-16T04:34:36.923Z,35.88
2018-10-16T04:37:05.036Z,34.33
2018-10-16T04:39:33.086Z,35.43
2018-10-16T04:42:01.279Z,25.60
2018-10-16T04:44:29.312Z,25.00
2018-10-16T04:46:57.521Z,24.60
2018-10-16T04:49:25.574Z,23.92
2018-10-16T04:51:53.787Z,22.75
2018-10-16T04:54:21.939Z,22.93
2018-10-16T04:56:50.017Z,21.40
2018-10-16T04:59:18.296Z,26.27
2018-10-16T05:01:46.349Z,26.15
2018-10-16T05:04:14.507Z,32.38
2018-10-16T05:06:42.774Z,27.30
2018-10-16T05:09:10.992Z,25.88
2018-10-16T05:11:44.665Z,24.98
2018-10-16T05:14:13.117Z,27.13
2018-10-16T05:16:41.590Z,24.12
2018-10-16T05:19:09.746Z,24.63
2018-10-16T05:21:38.716Z,25.15
2018-10-16T05:24:07.631Z,26.90
2018-10-16T05:26:35.779Z,28.07
2018-10-16T05:29:04.082Z,24.12
2018-10-16T05:31:32.504Z,23.55
2018-10-16T05:34:00.543Z,25.00
2018-10-16T05:36:28.596Z,27.10
2018-10-16T05:38:56.701Z,26.33
2018-10-16T05:41:24.762Z,27.22
2018-10-16T05:43:52.964Z,24.00
2018-10-16T05:46:20.997Z,25.13
2018-10-16T05:48:53.507Z,26.97
2018-10-16T05:51:24.937Z,25.45
2018-10-16T05:53:56.238Z,25.00
2018-10-16T05:56:37.289Z,36.38
2018-10-16T05:59:08.746Z,30.08
2018-10-16T06:01:40.132Z,29.18
2018-10-16T06:04:11.312Z,26.10
2018-10-16T06:06:39.480Z,25.77
2018-10-16T06:09:07.956Z,23.65
2018-10-16T06:11:38.295Z,32.25
2018-10-16T06:14:09.163Z,32.50
2018-10-16T06:16:39.978Z,29.02
2018-10-16T06:19:10.591Z,24.80
2018-10-16T06:21:39.267Z,26.35
2018-10-16T06:24:07.471Z,24.82
2018-10-16T06:26:35.861Z,26.70
2018-10-16T06:29:04.216Z,27.58
2018-10-16T06:31:32.812Z,29.98
2018-10-16T06:34:01.056Z,26.50
2018-10-16T06:36:29.646Z,27.65
2018-10-16T06:38:57.784Z,28.53
2018-10-16T06:41:27.157Z,28.30
2018-10-16T06:43:59.538Z,27.40
2018-10-16T06:46:31.701Z,29.82
2018-10-16T06:49:04.335Z,27.80
2018-10-16T06:51:36.629Z,27.02
2018-10-16T06:54:08.429Z,29.18
2018-10-16T06:56:40.327Z,27.52
2018-10-16T06:59:12.243Z,27.87
2018-10-16T07:01:44.680Z,28.60
2018-10-16T07:04:16.496Z,27.70
2018-10-16T07:06:48.038Z,25.08
2018-10-16T07:09:16.424Z,26.47
2018-10-16T07:11:48.100Z,26.17
2018-10-16T07:14:19.314Z,25.90
2018-10-16T07:16:50.322Z,23.90
2018-10-16T07:19:18.413Z,24.72
2018-10-16T07:21:49.752Z,23.77
2018-10-16T07:24:20.786Z,23.90
2018-10-16T07:26:51.624Z,23.15
2018-10-16T07:29:22.674Z,23.10
2018-10-16T07:32:01.453Z,22.62
2018-10-16T07:34:32.816Z,21.90
2018-10-16T07:37:03.831Z,20.57
2018-10-16T07:39:39.107Z,20.90
2018-10-16T07:42:15.063Z,20.15
2018-10-16T07:44:47.801Z,19.30
2018-10-16T07:47:21.115Z,19.42
2018-10-16T07:49:54.166Z,19.37
2018-10-16T07:52:27.715Z,21.30
2018-10-16T07:55:01.024Z,22.50
2018-10-16T07:57:35.328Z,20.95
2018-10-16T08:00:11.250Z,20.90
2018-10-16T08:02:45.974Z,20.50
2018-10-16T08:05:20.174Z,20.37
2018-10-16T08:07:54.817Z,21.40
2018-10-16T08:10:29.152Z,20.57
2018-10-16T08:13:03.819Z,21.37
2018-10-16T08:16:17.138Z,22.40
2018-10-16T08:18:51.725Z,20.77
2018-10-16T08:21:25.872Z,22.75
2018-10-16T08:23:59.914Z,21.80
2018-10-16T08:26:33.462Z,21.33
2018-10-16T08:29:07.189Z,21.87
2018-10-16T08:31:40.650Z,22.32
2018-10-16T08:34:14.808Z,22.90
2018-10-16T08:36:48.284Z,23.05
2018-10-16T08:39:32.630Z,22.22
2018-10-16T08:44:19.413Z,22.10
2018-10-16T08:47:02.088Z,22.55
2018-10-16T08:49:44.714Z,22.65
2018-10-16T08:52:18.630Z,23.15
2018-10-16T08:54:52.152Z,24.30
2018-10-16T08:57:30.833Z,23.50
2018-10-16T09:00:02.759Z,23.92
2018-10-16T09:02:34.889Z,24.92
2018-10-16T09:05:07.817Z,23.65
2018-10-16T09:07:39.964Z,23.27
2018-10-16T09:10:12.278Z,23.92
2018-10-16T09:12:44.187Z,24.30
2018-10-16T09:15:16.288Z,24.23
2018-10-16T09:17:49.919Z,25.68
2018-10-16T09:20:22.935Z,23.32
2018-10-16T09:22:56.197Z,23.80
2018-10-16T09:25:29.297Z,24.70
2018-10-16T09:28:03.777Z,23.90
2018-10-16T09:30:37.937Z,26.43
2018-10-16T09:33:11.276Z,24.10
2018-10-16T09:35:45.116Z,22.87
2018-10-16T09:38:20.030Z,23.55
2018-10-16T09:40:54.526Z,23.57
2018-10-16T09:43:29.705Z,23.10
2018-10-16T09:46:04.246Z,23.12
2018-10-16T09:48:38.650Z,23.25
2018-10-16T09:51:12.719Z,21.85
2018-10-16T09:53:47.315Z,23.85
2018-10-16T09:56:22.012Z,21.40
2018-10-16T09:58:55.997Z,22.25
2018-10-16T10:01:33.718Z,22.25
2018-10-16T10:04:07.632Z,21.87
2018-10-16T10:06:40.156Z,22.35
2018-10-16T10:09:14.089Z,22.48
2018-10-16T10:11:46.807Z,22.60
2018-10-16T10:14:19.750Z,21.77
2018-10-16T10:16:52.018Z,22.93
2018-10-16T10:19:24.648Z,21.60
2018-10-16T10:21:57.335Z,22.10
2018-10-16T10:24:29.696Z,22.00
2018-10-16T10:27:02.250Z,20.55
2018-10-16T10:29:34.768Z,22.40
2018-10-16T10:32:07.251Z,21.93
2018-10-16T10:34:38.968Z,21.30
2018-10-16T10:37:10.966Z,19.85
2018-10-16T10:39:42.943Z,20.82
2018-10-16T10:42:14.647Z,20.00
2018-10-16T10:44:48.466Z,19.40
2018-10-16T10:47:21.933Z,20.60
2018-10-16T10:49:54.515Z,19.80
2018-10-16T10:52:27.190Z,19.57
2018-10-16T10:55:00.196Z,20.10
2018-10-16T10:57:32.845Z,19.80
2018-10-16T11:00:05.070Z,19.48
2018-10-16T11:02:39.046Z,19.52
2018-10-16T11:05:13.364Z,19.55
2018-10-16T11:07:59.771Z,18.40
2018-10-16T11:10:34.352Z,17.90
2018-10-16T11:13:10.842Z,16.40
2018-10-16T11:15:45.900Z,16.65
2018-10-16T11:18:19.770Z,16.80
2018-10-16T11:20:53.406Z,16.95
2018-10-16T11:23:30.401Z,17.12
2018-10-16T11:26:03.899Z,16.35
2018-10-16T11:28:37.338Z,16.50
2018-10-16T11:31:10.663Z,15.57
2018-10-16T11:33:45.411Z,14.93
2018-10-16T11:36:19.047Z,15.68
2018-10-16T11:38:52.589Z,15.43
2018-10-16T11:41:24.439Z,13.63
2018-10-16T11:43:58.877Z,14.97
2018-10-16T11:46:31.970Z,15.38
2018-10-16T11:49:04.732Z,14.23
2018-10-16T11:51:38.284Z,14.53
2018-10-16T11:54:12.409Z,14.87
2018-10-16T11:56:43.962Z,14.70
2018-10-16T11:59:17.358Z,15.13
2018-10-16T12:01:49.860Z,15.40
2018-10-16T12:04:22.321Z,14.87
2018-10-16T12:06:54.443Z,14.45
2018-10-16T12:09:27.416Z,14.07
2018-10-16T12:12:00.729Z,13.98
2018-10-16T12:14:33.404Z,12.70
2018-10-16T12:17:15.636Z,12.23
2018-10-16T12:19:50.716Z,12.68
2018-10-16T12:22:23.890Z,12.65
2018-10-16T12:24:57.795Z,12.60
2018-10-16T12:27:36.089Z,12.45
2018-10-16T12:30:16.685Z,12.33
2018-10-16T12:32:54.650Z,12.18
2018-10-16T12:35:28.441Z,11.97
2018-10-16T12:37:56.725Z,13.75
2018-10-16T12:40:24.805Z,12.30
2018-10-16T12:42:53.191Z,12.47
2018-10-16T12:45:21.246Z,13.10
2018-10-16T12:47:49.762Z,13.25
2018-10-16T12:50:18.502Z,12.93
2018-10-16T12:52:46.882Z,11.63
2018-10-16T12:55:16.276Z,11.57
2018-10-16T12:57:47.143Z,14.25
2018-10-16T13:00:18.427Z,15.68
2018-10-16T13:02:50.008Z,12.25
2018-10-16T13:05:20.800Z,11.68
2018-10-16T13:07:51.963Z,10.85
2018-10-16T13:10:24.941Z,10.38
2018-10-16T13:12:55.974Z,10.53
2018-10-16T13:15:27.310Z,11.12
2018-10-16T13:17:58.565Z,11.03
2018-10-16T13:20:29.675Z,9.90
2018-10-16T13:23:01.291Z,10.43
2018-10-16T13:25:32.479Z,12.18
2018-10-16T13:28:03.779Z,9.40
2018-10-16T13:30:36.397Z,9.35
2018-10-16T13:33:07.835Z,10.68
2018-10-16T13:35:39.437Z,10.00
2018-10-16T13:38:11.492Z,9.63
2018-10-16T13:40:43.198Z,12.43
2018-10-16T13:43:14.528Z,10.85
2018-10-16T13:45:45.527Z,10.27
2018-10-16T13:48:16.768Z,10.78
2018-10-16T13:50:47.662Z,10.15
2018-10-16T13:53:18.666Z,9.78
2018-10-16T13:55:49.671Z,10.88
2018-10-16T13:58:21.191Z,10.50
2018-10-16T14:00:52.702Z,11.38
2018-10-16T14:03:24.399Z,10.38
2018-10-16T14:05:55.592Z,9.70
2018-10-16T14:08:27.815Z,10.28
2018-10-16T14:10:59.731Z,9.60
2018-10-16T14:13:31.325Z,9.63
2018-10-16T14:16:03.054Z,9.30
2018-10-16T14:18:34.699Z,9.15
2018-10-16T14:21:06.479Z,9.50
2018-10-16T14:23:38.645Z,10.95
2018-10-16T14:26:10.497Z,10.15
2018-10-16T14:28:42.426Z,12.28
2018-10-16T14:31:14.058Z,10.25
2018-10-16T14:33:46.468Z,9.80
2018-10-16T14:36:18.412Z,9.90
2018-10-16T14:38:50.398Z,9.85
2018-10-16T14:41:22.403Z,9.47
2018-10-16T14:43:54.479Z,9.50
2018-10-16T14:46:26.297Z,9.65
2018-10-16T14:48:57.424Z,9.40
2018-10-16T14:51:28.209Z,9.93
2018-10-16T14:53:58.882Z,9.90
2018-10-16T14:56:30.016Z,9.60
2018-10-16T14:59:01.219Z,9.85
2018-10-16T15:01:32.592Z,9.18
2018-10-16T15:04:03.661Z,9.25
2018-10-16T15:06:35.252Z,8.88
2018-10-16T15:09:08.141Z,8.55
2018-10-16T15:11:38.965Z,9.23
2018-10-16T15:14:10.630Z,8.63
2018-10-16T15:16:42.189Z,8.35
2018-10-16T15:19:13.440Z,9.20
2018-10-16T15:21:44.688Z,10.13
2018-10-16T15:24:16.020Z,15.43
2018-10-16T15:26:44.053Z,17.55
2018-10-16T15:29:12.257Z,14.35
2018-10-16T15:31:40.395Z,12.20
2018-10-16T15:34:08.554Z,10.85
2018-10-16T15:36:37.112Z,10.80
2018-10-16T15:39:08.560Z,11.22
2018-10-16T15:41:36.797Z,10.65
2018-10-16T15:44:05.445Z,11.73
2018-10-16T15:46:33.697Z,11.38
2018-10-16T15:49:01.843Z,10.82
2018-10-16T15:51:29.917Z,11.28
2018-10-16T15:53:58.102Z,10.98
2018-10-16T15:56:26.183Z,11.25
2018-10-16T15:58:54.244Z,10.95
2018-10-16T16:01:22.411Z,12.70
2018-10-16T16:03:50.626Z,11.90
2018-10-16T16:06:18.857Z,11.57
2018-10-16T16:08:46.926Z,10.90
2018-10-16T16:11:15.444Z,11.28
2018-10-16T16:13:43.939Z,11.00
2018-10-16T16:16:12.082Z,11.35
2018-10-16T16:18:42.479Z,13.70
2018-10-16T16:21:13.154Z,14.38
2018-10-16T16:23:41.745Z,11.35
2018-10-16T16:26:09.816Z,12.40
2018-10-16T16:28:37.886Z,17.50
2018-10-16T16:31:06.255Z,20.73
2018-10-16T16:33:34.343Z,15.00
2018-10-16T16:36:02.457Z,16.17
2018-10-16T16:38:30.670Z,19.98
2018-10-16T16:40:58.826Z,17.13
2018-10-16T16:43:27.095Z,18.55
2018-10-16T16:45:55.436Z,17.50
2018-10-16T16:48:23.596Z,21.73
2018-10-16T16:50:51.696Z,23.90
2018-10-16T16:53:19.840Z,28.45
2018-10-16T16:55:47.917Z,23.92
2018-10-16T16:58:15.955Z,28.07
2018-10-16T17:00:44.090Z,34.10
2018-10-16T17:03:12.209Z,40.95
2018-10-16T17:05:40.760Z,37.38
2018-10-16T17:08:08.978Z,37.75
2018-10-16T17:10:36.964Z,32.55
2018-10-16T17:13:05.270Z,28.67
2018-10-16T17:15:33.396Z,24.80
2018-10-16T17:18:01.423Z,29.10
2018-10-16T17:20:29.436Z,21.95
2018-10-16T17:22:57.750Z,26.35
2018-10-16T17:25:26.029Z,25.17
2018-10-16T17:27:54.016Z,23.35
2018-10-16T17:30:22.060Z,20.97
2018-10-16T17:32:50.366Z,29.07
2018-10-16T17:35:18.517Z,30.55
2018-10-16T17:37:46.578Z,26.93
2018-10-16T17:40:15.959Z,36.20
2018-10-16T17:42:44.518Z,24.30
2018-10-16T17:45:13.939Z,35.90
2018-10-16T17:47:42.175Z,37.17
2018-10-16T17:50:12.329Z,34.40
2018-10-16T17:52:40.728Z,30.75
2018-10-16T17:55:09.987Z,29.23
2018-10-16T17:57:38.400Z,34.33
2018-10-16T18:00:08.750Z,33.05
2018-10-16T18:02:36.944Z,32.13
2018-10-16T18:05:05.449Z,24.87
2018-10-16T18:07:33.510Z,23.13
2018-10-16T18:10:01.582Z,24.52
2018-10-16T18:12:29.888Z,26.50
2018-10-16T18:14:58.080Z,29.32
2018-10-16T18:17:26.292Z,22.07
2018-10-16T18:19:54.480Z,22.02
2018-10-16T18:22:22.649Z,18.20
2018-10-16T18:24:50.724Z,23.10
2018-10-16T18:27:18.908Z,21.35
2018-10-16T18:29:47.109Z,26.10
2018-10-16T18:32:15.197Z,23.75
2018-10-16T18:34:43.201Z,21.30
2018-10-16T18:37:11.417Z,22.85
2018-10-16T18:39:39.696Z,20.12
2018-10-16T18:42:07.632Z,22.07
2018-10-16T18:44:35.721Z,25.17
2018-10-16T18:47:03.776Z,24.77
2018-10-16T18:49:31.980Z,19.45
2018-10-16T18:52:00.047Z,19.80
2018-10-16T18:54:28.154Z,25.23
2018-10-16T18:56:56.326Z,25.27
2018-10-16T18:59:24.353Z,18.77
2018-10-16T19:01:52.446Z,18.35
2018-10-16T19:04:20.603Z,21.62
2018-10-16T19:06:48.682Z,19.98
2018-10-16T19:09:17.074Z,19.80
2018-10-16T19:11:45.001Z,20.92
2018-10-16T19:14:13.026Z,20.60
2018-10-16T19:16:41.178Z,25.00
2018-10-16T19:19:09.269Z,20.02
2018-10-16T19:21:37.442Z,23.10
2018-10-16T19:24:05.769Z,20.82
2018-10-16T19:26:34.013Z,21.33
2018-10-16T19:29:02.153Z,23.95
2018-10-16T19:31:30.257Z,22.27
2018-10-16T19:33:58.323Z,22.40
2018-10-16T19:36:26.519Z,22.50
2018-10-16T19:38:54.695Z,22.77
2018-10-16T19:41:22.809Z,17.98
2018-10-16T19:43:51.028Z,18.45
2018-10-16T19:46:19.105Z,21.35
2018-10-16T19:48:47.141Z,21.90
2018-10-16T19:51:15.364Z,22.35
2018-10-16T19:53:45.354Z,28.42
2018-10-16T19:56:13.799Z,25.97
2018-10-16T19:58:46.238Z,21.40
2018-10-16T20:01:14.498Z,19.92
2018-10-16T20:03:42.677Z,20.50
2018-10-16T20:06:14.075Z,22.48
2018-10-16T20:08:45.360Z,19.62
2018-10-16T20:11:16.381Z,22.22
2018-10-16T20:13:47.762Z,19.77
2018-10-16T20:16:18.872Z,23.10
2018-10-16T20:18:49.882Z,19.80
2018-10-16T20:21:21.305Z,21.53
2018-10-16T20:23:54.408Z,20.75
2018-10-16T20:26:25.329Z,19.05
2018-10-16T20:28:56.717Z,19.57
2018-10-16T20:31:27.968Z,20.70
2018-10-16T20:33:59.316Z,20.88
2018-10-16T20:36:30.950Z,19.70
2018-10-16T20:39:02.327Z,24.52
2018-10-16T20:41:34.202Z,23.20
2018-10-16T20:44:06.722Z,25.82
2018-10-16T20:46:38.932Z,25.00
2018-10-16T20:49:10.408Z,39.33
2018-10-16T20:51:41.967Z,35.85
2018-10-16T20:54:13.469Z,36.50
2018-10-16T20:56:45.121Z,33.58
2018-10-16T20:59:16.969Z,33.30
2018-10-16T21:01:48.863Z,28.05
2018-10-16T21:04:20.489Z,27.07
2018-10-16T21:06:52.755Z,24.80
2018-10-16T21:09:24.325Z,24.70
2018-10-16T21:11:56.232Z,24.67
2018-10-16T21:14:27.690Z,29.65
2018-10-16T21:16:59.402Z,26.50
2018-10-16T21:19:31.294Z,22.27
2018-10-16T21:22:03.130Z,22.87
2018-10-16T21:24:35.124Z,27.27
2018-10-16T21:27:09.868Z,26.20
2018-10-16T21:29:41.171Z,30.75
2018-10-16T21:32:12.877Z,25.35
2018-10-16T21:34:44.672Z,29.67
2018-10-16T21:37:16.642Z,23.07
2018-10-16T21:39:48.334Z,29.70
2018-10-16T21:42:20.048Z,29.85
2018-10-16T21:44:51.689Z,27.42
2018-10-16T21:47:23.055Z,25.00
2018-10-16T21:49:54.616Z,26.30
2018-10-16T21:52:25.996Z,24.47
2018-10-16T21:54:57.759Z,26.48
2018-10-16T21:57:29.426Z,25.15
2018-10-16T22:00:01.427Z,23.15
2018-10-16T22:02:37.670Z,22.37
2018-10-16T22:05:09.650Z,21.05
2018-10-16T22:07:41.566Z,24.27
2018-10-16T22:10:13.564Z,26.42
2018-10-16T22:12:47.137Z,22.13
2018-10-16T22:15:19.855Z,22.48
2018-10-16T22:17:52.070Z,24.20
2018-10-16T22:20:24.208Z,25.82
2018-10-16T22:22:55.950Z,27.87
2018-10-16T22:25:27.743Z,26.20
2018-10-16T22:27:59.613Z,21.55
2018-10-16T22:30:31.236Z,23.77
2018-10-16T22:33:02.688Z,23.45
2018-10-16T22:35:33.928Z,23.18
2018-10-16T22:38:05.576Z,26.82
2018-10-16T22:40:37.126Z,23.18
2018-10-16T22:43:08.834Z,23.60
2018-10-16T22:45:40.196Z,26.95
2018-10-16T22:48:11.427Z,26.40
2018-10-16T22:50:42.799Z,20.40
2018-10-16T22:53:14.324Z,19.47
2018-10-16T22:55:45.815Z,24.95
2018-10-16T22:58:16.644Z,19.65
2018-10-16T23:00:47.604Z,21.37
2018-10-16T23:03:19.320Z,20.27
2018-10-16T23:05:50.699Z,22.05
2018-10-16T23:08:22.526Z,21.70
2018-10-16T23:10:54.611Z,26.75
2018-10-16T23:13:26.191Z,25.48
2018-10-16T23:15:57.958Z,22.67
2018-10-16T23:18:30.298Z,27.85
2018-10-16T23:21:02.013Z,25.90
2018-10-16T23:23:33.662Z,30.10
2018-10-16T23:26:05.117Z,25.45
2018-10-16T23:28:36.028Z,29.90
2018-10-16T23:31:07.940Z,24.67
2018-10-16T23:33:39.321Z,26.02
2018-10-16T23:36:10.376Z,32.85
2018-10-16T23:38:41.553Z,32.73
2018-10-16T23:41:13.130Z,30.50
2018-10-16T23:43:44.505Z,30.92
2018-10-16T23:46:15.869Z,28.73
2018-10-16T23:48:47.730Z,24.20
2018-10-16T23:51:18.925Z,24.02
2018-10-16T23:53:50.221Z,23.30
2018-10-16T23:56:21.436Z,26.50
2018-10-16T23:58:52.703Z,25.70
